Time;durP1;ratioP1;P1;durP2;ratioP2;P2;SDS_P1;SDS_P2;PMS_P1;PMS_P2;Temp;Humidity;BMP_temperature;BMP_pressure;BME280_temperature;BME280_humidity;BME280_pressure;Samples;Min_cycle;Max_cycle;Signal;HPM_P1;HPM_P2
2021/09/26 00:02:46;;;;;;;;;;;;;;;;;;;;;
2021/09/26 00:05:12;;;;;;;15.57;11.48;;;17.60;94.30;;;;;;4967981;28;20034;-90
2021/09/26 00:07:39;;;;;;;15.07;11.32;;;17.50;94.20;;;;;;4957384;28;20019;-90
2021/09/26 00:10:07;;;;;;;15.45;11.77;;;17.50;94.30;;;;;;4947304;28;20477;-90
2021/09/26 00:12:34;;;;;;;14.27;12.10;;;17.50;94.30;;;;;;4955533;28;20042;-89
2021/09/26 00:15:01;;;;;;;14.45;11.05;;;17.40;94.30;;;;;;4989490;28;20081;-90
2021/09/26 00:17:26;;;;;;;14.40;11.85;;;17.40;94.30;;;;;;4958955;28;20030;-90
2021/09/26 00:19:52;;;;;;;16.15;11.35;;;17.40;94.20;;;;;;4957053;28;20097;-89
2021/09/26 00:22:18;;;;;;;14.15;11.18;;;17.40;94.20;;;;;;4944182;29;20027;-89
2021/09/26 00:24:44;;;;;;;14.27;10.90;;;17.40;94.20;;;;;;4953730;28;20023;-89
2021/09/26 00:27:11;;;;;;;14.27;11.20;;;17.40;94.20;;;;;;4948546;28;20169;-89
2021/09/26 00:29:38;;;;;;;15.38;11.80;;;17.40;94.30;;;;;;4969528;28;20031;-89
2021/09/26 00:32:07;;;;;;;17.15;12.30;;;17.30;94.30;;;;;;4962943;28;20129;-90
2021/09/26 00:34:34;;;;;;;14.82;11.38;;;17.30;94.30;;;;;;4957404;28;20087;-89
2021/09/26 00:37:00;;;;;;;17.02;12.40;;;17.30;94.30;;;;;;4965647;28;20506;-89
2021/09/26 00:39:26;;;;;;;14.45;11.63;;;17.30;94.30;;;;;;4972874;28;20027;-89
2021/09/26 00:41:52;;;;;;;15.38;11.60;;;17.30;94.30;;;;;;4957363;28;20023;-90
2021/09/26 00:44:18;;;;;;;15.32;11.77;;;17.20;94.30;;;;;;4970618;28;20023;-90
2021/09/26 00:46:43;;;;;;;15.30;11.20;;;17.20;94.30;;;;;;4967002;28;20058;-89
2021/09/26 00:49:09;;;;;;;15.68;12.32;;;17.20;94.40;;;;;;5002291;28;20034;-89
2021/09/26 00:51:35;;;;;;;13.50;11.50;;;17.20;94.40;;;;;;4995830;28;20050;-89
2021/09/26 00:54:01;;;;;;;16.10;12.10;;;17.20;94.40;;;;;;5008904;28;20166;-89
2021/09/26 00:56:30;;;;;;;15.52;11.25;;;17.20;94.40;;;;;;4999165;28;20030;-90
2021/09/26 00:58:56;;;;;;;15.60;11.55;;;17.20;94.40;;;;;;5015399;28;20033;-89
2021/09/26 01:01:22;;;;;;;16.70;12.25;;;17.10;94.30;;;;;;4982769;28;20025;-89
2021/09/26 01:03:48;;;;;;;15.10;11.40;;;17.10;94.30;;;;;;5004301;28;20383;-89
2021/09/26 01:06:58;;;;;;;15.52;12.57;;;17.10;94.30;;;;;;5016440;28;20564;-89
2021/09/26 01:09:56;;;;;;;17.75;12.85;;;17.10;94.30;;;;;;5004071;28;20121;-89
2021/09/26 01:12:52;;;;;;;15.55;11.32;;;17.00;94.30;;;;;;4996771;28;20057;-89
2021/09/26 01:15:46;;;;;;;15.57;11.27;;;17.00;94.40;;;;;;4993813;28;20032;-89
2021/09/26 01:18:27;;;;;;;14.93;11.77;;;17.00;94.40;;;;;;4979000;28;20030;-89
2021/09/26 01:20:59;;;;;;;;;;;16.90;94.30;;;;;;4979497;28;20375;-89
2021/09/26 01:23:43;;;;;;;;;;;16.90;94.20;;;;;;4996105;28;19912;-90
2021/09/26 01:26:55;;;;;;;14.75;11.70;;;16.90;94.30;;;;;;5009231;28;19905;-89
2021/09/26 01:29:44;;;;;;;15.43;11.95;;;16.80;94.40;;;;;;4981282;28;20121;-89
2021/09/26 01:32:13;;;;;;;14.43;11.68;;;16.80;94.40;;;;;;5002507;28;20639;-89
2021/09/26 01:34:45;;;;;;;18.38;12.27;;;16.80;94.40;;;;;;4982177;28;20121;-89
2021/09/26 01:37:18;;;;;;;15.38;12.13;;;16.70;94.40;;;;;;4994987;28;20094;-90
2021/09/26 01:39:55;;;;;;;16.88;12.10;;;16.70;94.40;;;;;;4998089;28;20026;-90
2021/09/26 01:42:35;;;;;;;16.48;12.25;;;16.70;94.40;;;;;;4983634;28;20133;-90
2021/09/26 01:45:22;;;;;;;15.82;11.73;;;16.70;94.40;;;;;;4996181;28;20022;-90
2021/09/26 01:48:06;;;;;;;16.58;12.40;;;16.70;94.40;;;;;;4994941;28;20105;-90
2021/09/26 01:50:33;;;;;;;16.90;12.75;;;16.60;94.40;;;;;;5012722;28;20094;-90
2021/09/26 01:53:00;;;;;;;16.50;11.93;;;16.60;94.40;;;;;;4978447;28;20081;-89
2021/09/26 01:55:27;;;;;;;22.67;12.98;;;16.60;94.40;;;;;;4993852;28;20019;-90
2021/09/26 01:57:55;;;;;;;14.68;11.70;;;16.60;94.40;;;;;;4969490;28;20086;-90
2021/09/26 02:00:21;;;;;;;16.73;12.35;;;16.50;94.40;;;;;;4989628;28;20156;-90
2021/09/26 02:02:51;;;;;;;14.48;10.50;;;16.50;94.40;;;;;;4978599;28;20121;-90
2021/09/26 02:05:18;;;;;;;15.02;12.35;;;16.50;94.40;;;;;;4965723;28;20030;-90
2021/09/26 02:07:46;;;;;;;17.77;12.35;;;16.50;94.40;;;;;;4991578;28;20014;-89
2021/09/26 02:10:20;;;;;;;16.55;11.90;;;16.50;94.50;;;;;;4994074;28;20107;-90
2021/09/26 02:12:47;;;;;;;17.95;12.93;;;16.50;94.90;;;;;;4981266;28;20482;-90
2021/09/26 02:15:17;;;;;;;19.00;12.85;;;16.50;94.70;;;;;;4994983;28;20383;-90
2021/09/26 02:17:45;;;;;;;15.07;12.15;;;16.50;94.70;;;;;;4991384;28;20482;-90
2021/09/26 02:20:12;;;;;;;16.00;12.32;;;16.50;94.70;;;;;;4984874;28;20527;-91
2021/09/26 02:22:39;;;;;;;18.05;13.48;;;16.50;94.80;;;;;;4976344;28;20035;-90
2021/09/26 02:25:07;;;;;;;15.30;12.18;;;16.50;94.80;;;;;;4994487;28;20014;-90
2021/09/26 02:27:34;;;;;;;14.27;11.95;;;16.50;94.80;;;;;;4975098;28;20118;-90
2021/09/26 02:30:01;;;;;;;15.93;12.27;;;16.50;94.80;;;;;;4969745;28;20480;-89
2021/09/26 02:32:27;;;;;;;16.27;12.10;;;16.50;94.80;;;;;;4983101;28;20133;-90
2021/09/26 02:34:52;;;;;;;15.98;11.20;;;16.40;94.80;;;;;;4987406;28;20114;-90
2021/09/26 02:37:18;;;;;;;17.42;12.90;;;16.40;94.80;;;;;;4990231;28;20034;-90
2021/09/26 02:39:45;;;;;;;15.55;12.18;;;16.40;94.80;;;;;;4994026;28;20085;-89
2021/09/26 02:42:31;;;;;;;16.08;12.27;;;16.40;94.80;;;;;;4987104;28;20030;-90
2021/09/26 02:44:56;;;;;;;17.70;13.32;;;16.40;94.80;;;;;;4982659;28;20502;-90
2021/09/26 02:47:25;;;;;;;15.07;12.57;;;16.40;94.80;;;;;;4978154;28;20057;-90
2021/09/26 02:49:53;;;;;;;15.95;11.43;;;16.40;94.80;;;;;;4993871;28;20026;-90
2021/09/26 02:52:21;;;;;;;15.70;12.13;;;16.40;94.70;;;;;;4979868;28;20128;-90
2021/09/26 02:54:47;;;;;;;17.92;12.00;;;16.30;94.70;;;;;;4995902;28;20027;-90
2021/09/26 02:57:13;;;;;;;15.82;11.25;;;16.30;94.70;;;;;;4994428;28;20022;-90
2021/09/26 02:59:40;;;;;;;16.92;12.45;;;16.30;94.80;;;;;;4993552;28;20109;-90
2021/09/26 03:02:06;;;;;;;15.63;12.43;;;16.30;94.80;;;;;;4993508;28;20041;-90
2021/09/26 03:04:32;;;;;;;15.60;12.07;;;16.30;94.80;;;;;;4979943;28;20033;-90
2021/09/26 03:06:58;;;;;;;16.23;12.63;;;16.30;94.80;;;;;;4993821;28;20018;-90
2021/09/26 03:09:24;;;;;;;19.23;12.07;;;16.30;94.80;;;;;;4993776;28;20127;-90
2021/09/26 03:11:50;;;;;;;15.57;11.80;;;16.20;94.80;;;;;;4966478;28;20033;-87
2021/09/26 03:14:16;;;;;;;15.55;11.88;;;16.20;94.80;;;;;;4993020;28;20084;-87
2021/09/26 03:16:42;;;;;;;17.23;12.82;;;16.20;94.90;;;;;;4992785;28;20034;-88
2021/09/26 03:19:08;;;;;;;16.48;12.38;;;16.20;94.90;;;;;;4993182;28;20529;-88
2021/09/26 03:21:34;;;;;;;16.00;12.20;;;16.20;95.00;;;;;;4992945;28;20495;-87
2021/09/26 03:24:00;;;;;;;15.18;11.82;;;16.20;95.00;;;;;;4982527;28;20503;-88
2021/09/26 03:26:27;;;;;;;16.02;11.80;;;16.20;95.10;;;;;;4975807;28;20038;-87
2021/09/26 03:28:53;;;;;;;14.88;11.73;;;16.20;95.10;;;;;;4992807;28;20026;-87
2021/09/26 03:31:21;;;;;;;17.20;12.20;;;16.20;95.20;;;;;;4978572;28;20193;-88
2021/09/26 03:33:46;;;;;;;20.95;12.13;;;16.20;95.20;;;;;;4957117;28;20085;-88
2021/09/26 03:36:12;;;;;;;17.73;12.18;;;16.20;95.20;;;;;;4976633;28;20049;-88
2021/09/26 03:38:38;;;;;;;15.27;11.70;;;16.20;95.30;;;;;;4990508;28;20039;-88
2021/09/26 03:41:04;;;;;;;15.65;11.77;;;16.20;95.30;;;;;;4957802;28;20033;-93
2021/09/26 03:43:29;;;;;;;14.98;11.43;;;16.20;95.30;;;;;;4961759;28;20380;-87
2021/09/26 03:45:55;;;;;;;15.00;11.45;;;16.20;95.30;;;;;;4969540;28;20026;-87
2021/09/26 03:48:24;;;;;;;14.85;12.10;;;16.20;95.30;;;;;;4983228;28;20046;-87
2021/09/26 03:50:50;;;;;;;16.73;12.30;;;16.20;95.40;;;;;;4992337;28;20030;-87
2021/09/26 03:53:20;;;;;;;15.65;12.43;;;16.20;95.40;;;;;;4967423;28;20053;-86
2021/09/26 03:55:46;;;;;;;17.90;13.38;;;16.20;95.40;;;;;;4990381;28;20081;-86
2021/09/26 03:58:19;;;;;;;16.83;12.05;;;16.20;95.40;;;;;;4981076;28;20022;-86
2021/09/26 04:00:47;;;;;;;16.50;11.57;;;16.20;95.50;;;;;;4960154;28;20486;-86
2021/09/26 04:03:13;;;;;;;16.40;11.63;;;16.20;95.50;;;;;;4991676;28;20023;-86
2021/09/26 04:05:39;;;;;;;14.73;11.50;;;16.20;95.50;;;;;;4989305;28;20040;-86
2021/09/26 04:08:04;;;;;;;15.88;12.18;;;16.20;95.50;;;;;;4964466;28;20023;-86
2021/09/26 04:10:30;;;;;;;14.98;10.82;;;16.20;95.50;;;;;;5007734;28;20026;-87
2021/09/26 04:12:55;;;;;;;16.17;11.77;;;16.20;95.50;;;;;;4979980;28;20023;-86
2021/09/26 04:15:21;;;;;;;16.10;12.50;;;16.20;95.50;;;;;;4996111;28;20027;-87
2021/09/26 04:17:49;;;;;;;13.68;10.98;;;16.20;95.50;;;;;;4961071;28;20042;-87
2021/09/26 04:20:18;;;;;;;17.02;12.15;;;16.20;95.50;;;;;;4991798;28;20030;-86
2021/09/26 04:22:49;;;;;;;17.67;12.43;;;16.20;95.50;;;;;;4964950;28;20093;-87
2021/09/26 04:25:16;;;;;;;12.45;10.65;;;16.20;95.50;;;;;;4986121;28;20027;-90
2021/09/26 04:27:44;;;;;;;16.27;11.30;;;16.20;95.80;;;;;;4981106;28;20122;-90
2021/09/26 04:30:11;;;;;;;15.20;11.82;;;16.20;95.60;;;;;;4974183;28;20069;-90
2021/09/26 04:32:37;;;;;;;15.30;11.18;;;16.20;95.60;;;;;;4989935;28;20045;-90
2021/09/26 04:35:04;;;;;;;13.90;10.93;;;16.20;95.60;;;;;;5012923;28;20051;-90
2021/09/26 04:37:30;;;;;;;15.65;11.20;;;16.20;95.60;;;;;;4983874;28;20041;-90
2021/09/26 04:39:56;;;;;;;14.52;11.50;;;16.20;95.60;;;;;;4974086;28;20039;-90
2021/09/26 04:42:21;;;;;;;14.93;11.45;;;16.20;95.60;;;;;;4996098;28;20041;-90
2021/09/26 04:44:47;;;;;;;13.77;11.38;;;16.20;95.70;;;;;;4996052;28;20073;-90
2021/09/26 04:47:13;;;;;;;15.85;11.35;;;16.20;95.70;;;;;;4995873;28;20119;-90
2021/09/26 04:49:42;;;;;;;14.57;11.23;;;16.10;95.60;;;;;;4995941;28;20483;-91
2021/09/26 04:52:08;;;;;;;14.82;11.13;;;16.20;95.70;;;;;;4982047;28;20129;-91
2021/09/26 04:54:34;;;;;;;13.88;11.00;;;16.20;95.70;;;;;;4986893;28;20433;-91
2021/09/26 04:57:04;;;;;;;15.27;10.98;;;16.20;95.60;;;;;;4973888;28;20071;-90
2021/09/26 04:59:30;;;;;;;15.32;11.32;;;16.20;95.70;;;;;;4976692;28;20033;-90
2021/09/26 05:01:59;;;;;;;15.25;11.23;;;16.20;95.70;;;;;;4960265;28;20038;-90
2021/09/26 05:04:25;;;;;;;15.70;11.82;;;16.20;95.70;;;;;;4992745;28;20019;-91
2021/09/26 05:06:59;;;;;;;12.65;10.63;;;16.20;95.80;;;;;;4972328;28;20026;-90
2021/09/26 05:09:31;;;;;;;16.55;11.10;;;16.20;95.80;;;;;;4991825;28;20376;-91
2021/09/26 05:11:57;;;;;;;15.05;10.80;;;16.20;95.80;;;;;;4964406;28;20031;-91
2021/09/26 05:14:28;;;;;;;15.35;12.13;;;16.20;95.80;;;;;;4973266;28;20038;-90
2021/09/26 05:17:22;;;;;;;15.05;11.27;;;16.20;95.80;;;;;;4951764;28;20121;-90
2021/09/26 05:19:48;;;;;;;13.90;11.10;;;16.20;95.80;;;;;;4979491;28;20082;-90
2021/09/26 05:22:14;;;;;;;13.90;10.88;;;16.20;95.90;;;;;;4995433;28;20031;-90
2021/09/26 05:24:40;;;;;;;15.30;11.98;;;16.20;95.90;;;;;;4995425;28;20030;-91
2021/09/26 05:27:06;;;;;;;14.98;11.20;;;16.20;95.90;;;;;;4988735;28;20037;-91
2021/09/26 05:29:34;;;;;;;14.18;10.45;;;16.20;95.90;;;;;;4959286;28;20033;-90
2021/09/26 05:32:03;;;;;;;16.77;11.80;;;16.20;95.90;;;;;;4995730;28;20446;-87
2021/09/26 05:34:29;;;;;;;15.32;12.00;;;16.20;96.00;;;;;;4975661;28;20031;-90
2021/09/26 05:36:56;;;;;;;14.80;10.07;;;16.20;96.00;;;;;;4976869;28;20050;-92
2021/09/26 05:39:24;;;;;;;13.45;11.15;;;16.20;96.00;;;;;;4960336;28;20392;-93
2021/09/26 05:41:51;;;;;;;15.15;11.45;;;16.20;96.00;;;;;;4960520;28;20092;-94
2021/09/26 05:44:17;;;;;;;14.85;11.23;;;16.20;96.00;;;;;;4961592;28;20027;-94
2021/09/26 05:46:43;;;;;;;15.82;10.52;;;16.20;96.00;;;;;;4983158;28;20382;-94
2021/09/26 05:49:09;;;;;;;14.43;11.18;;;16.20;96.00;;;;;;4984507;28;20027;-94
2021/09/26 05:51:35;;;;;;;13.50;11.38;;;16.30;96.10;;;;;;4994450;23;20074;-94
2021/09/26 05:57:09;;;;;;;14.43;11.02;;;16.30;96.30;;;;;;4983036;28;20110;-93
2021/09/26 05:59:44;;;;;;;14.60;11.32;;;16.30;96.30;;;;;;4982203;28;20113;-95
2021/09/26 06:02:10;;;;;;;13.80;10.32;;;16.20;96.40;;;;;;5015545;28;20101;-94
2021/09/26 06:04:37;;;;;;;15.98;11.10;;;16.30;96.40;;;;;;5013971;28;20019;-93
2021/09/26 06:07:03;;;;;;;13.48;10.23;;;16.20;96.40;;;;;;4997126;28;20022;-93
2021/09/26 06:09:29;;;;;;;15.40;11.50;;;16.30;96.50;;;;;;4980339;28;20089;-93
2021/09/26 06:11:55;;;;;;;13.55;10.45;;;16.30;96.50;;;;;;5000894;28;20090;-94
2021/09/26 06:14:21;;;;;;;13.77;10.20;;;16.20;96.50;;;;;;4998676;28;20502;-94
2021/09/26 06:16:47;;;;;;;14.55;11.07;;;16.30;96.60;;;;;;5003403;28;20106;-94
2021/09/26 06:19:13;;;;;;;13.40;10.65;;;16.30;96.60;;;;;;4997633;28;20030;-93
2021/09/26 06:21:43;;;;;;;12.82;9.98;;;16.30;96.60;;;;;;5000974;28;20054;-93
2021/09/26 06:24:10;;;;;;;16.38;10.57;;;16.30;96.60;;;;;;5013288;28;20065;-94
2021/09/26 06:26:35;;;;;;;14.85;11.13;;;16.30;96.60;;;;;;4998995;28;20022;-93
2021/09/26 06:29:01;;;;;;;12.88;10.07;;;16.30;96.60;;;;;;5001766;28;20113;-94
2021/09/26 06:31:49;;;;;;;13.20;11.05;;;16.30;96.70;;;;;;5012175;28;20538;-94
2021/09/26 06:34:16;;;;;;;14.48;10.07;;;16.30;96.70;;;;;;4997876;28;20050;-88
2021/09/26 06:36:42;;;;;;;14.25;10.68;;;16.30;96.80;;;;;;4986143;28;20550;-87
2021/09/26 06:39:17;;;;;;;14.70;11.15;;;16.30;96.80;;;;;;5013462;28;20029;-90
2021/09/26 06:41:43;;;;;;;14.60;10.88;;;16.30;96.80;;;;;;4966889;28;20018;-91
2021/09/26 06:44:08;;;;;;;12.82;10.85;;;16.30;96.80;;;;;;4981787;28;20383;-91
2021/09/26 06:46:34;;;;;;;14.85;10.18;;;16.40;96.90;;;;;;4975251;28;20120;-91
2021/09/26 06:49:00;;;;;;;12.68;10.43;;;16.40;96.90;;;;;;4978023;28;20117;-91
2021/09/26 06:51:25;;;;;;;12.35;10.25;;;16.40;96.90;;;;;;4988514;28;20133;-91
2021/09/26 06:53:54;;;;;;;13.60;10.43;;;16.40;96.90;;;;;;4999405;28;20435;-91
2021/09/26 06:56:20;;;;;;;13.80;10.30;;;16.40;96.90;;;;;;4981214;28;20026;-91
2021/09/26 06:58:49;;;;;;;12.98;10.55;;;16.40;97.00;;;;;;4996819;28;20041;-91
2021/09/26 07:01:14;;;;;;;14.55;9.77;;;16.50;97.00;;;;;;5014346;28;20104;-91
2021/09/26 07:03:40;;;;;;;13.18;9.60;;;16.50;97.10;;;;;;5013063;28;20103;-91
2021/09/26 07:06:06;;;;;;;12.80;9.60;;;16.50;97.10;;;;;;4948145;28;20491;-91
2021/09/26 07:08:32;;;;;;;13.32;9.40;;;16.50;97.10;;;;;;4980957;28;20029;-90
2021/09/26 07:10:58;;;;;;;12.63;9.85;;;16.50;97.10;;;;;;4986523;28;20049;-91
2021/09/26 07:13:23;;;;;;;13.13;10.73;;;16.50;97.10;;;;;;5013532;28;20372;-91
2021/09/26 07:15:49;;;;;;;14.90;10.60;;;16.50;97.10;;;;;;4996729;28;20033;-91
2021/09/26 07:18:14;;;;;;;11.98;9.75;;;16.60;97.20;;;;;;5012703;28;20037;-91
2021/09/26 07:20:49;;;;;;;13.40;10.50;;;16.60;97.20;;;;;;4996812;28;20365;-91
2021/09/26 07:23:15;;;;;;;15.48;10.45;;;16.60;97.20;;;;;;4980530;28;20025;-91
2021/09/26 07:25:48;;;;;;;13.90;10.57;;;16.60;97.20;;;;;;4996784;28;20021;-90
2021/09/26 07:28:14;;;;;;;11.55;9.80;;;16.60;97.20;;;;;;4986328;28;20033;-90
2021/09/26 07:30:45;;;;;;;13.45;10.32;;;16.60;97.30;;;;;;4996395;28;20021;-87
2021/09/26 07:33:14;;;;;;;;;;;16.60;97.30;;;;;;4992871;28;20034;-86
2021/09/26 07:35:45;;;;;;;15.32;10.13;;;16.70;97.40;;;;;;4970822;28;19910;-85
2021/09/26 07:38:12;;;;;;;13.38;10.40;;;16.70;97.40;;;;;;4992629;28;20025;-87
2021/09/26 07:40:50;;;;;;;14.98;10.30;;;16.70;97.40;;;;;;5008850;28;20061;-86
2021/09/26 07:43:25;;;;;;;;;;;;;;;;;;;;;
2021/09/26 07:45:53;;;;;;;13.52;10.77;;;16.80;97.50;;;;;;4990953;28;20379;-86
2021/09/26 07:48:20;;;;;;;13.65;11.18;;;16.80;97.50;;;;;;5009163;28;20029;-88
2021/09/26 07:50:46;;;;;;;12.93;10.77;;;16.80;97.60;;;;;;4996073;28;20088;-86
2021/09/26 07:53:11;;;;;;;12.13;9.63;;;16.90;97.60;;;;;;5012433;28;20128;-88
2021/09/26 07:55:37;;;;;;;11.18;9.38;;;16.90;97.60;;;;;;5009661;28;20072;-86
2021/09/26 07:58:03;;;;;;;9.60;8.60;;;16.90;97.60;;;;;;5001677;28;20116;-83
2021/09/26 08:00:28;;;;;;;12.38;10.07;;;16.90;97.60;;;;;;5011772;28;20029;-85
2021/09/26 08:02:54;;;;;;;12.77;10.80;;;17.00;97.70;;;;;;4995435;28;20018;-84
2021/09/26 08:05:20;;;;;;;17.15;12.35;;;17.00;97.90;;;;;;5021670;28;20072;-84
2021/09/26 08:07:45;;;;;;;14.27;11.65;;;17.10;98.00;;;;;;5030887;28;20025;-84
2021/09/26 08:10:11;;;;;;;14.13;10.68;;;17.10;98.00;;;;;;5008455;28;20034;-90
2021/09/26 08:12:37;;;;;;;12.52;9.85;;;17.20;98.10;;;;;;4979980;28;20037;-89
2021/09/26 08:15:05;;;;;;;12.65;9.93;;;17.20;98.10;;;;;;5010070;28;20140;-90
2021/09/26 08:17:43;;;;;;;12.15;10.85;;;17.30;98.20;;;;;;4991368;28;20042;-90
2021/09/26 08:20:13;;;;;;;12.10;9.35;;;17.30;98.20;;;;;;5001172;28;20059;-91
2021/09/26 08:22:39;;;;;;;12.10;9.95;;;17.40;98.20;;;;;;5022271;28;20021;-91
2021/09/26 08:25:12;;;;;;;12.85;10.90;;;17.40;98.20;;;;;;4999984;28;20160;-91
2021/09/26 08:27:56;;;;;;;17.95;12.95;;;17.40;98.20;;;;;;5023243;28;20026;-92
2021/09/26 08:30:24;;;;;;;16.92;13.77;;;17.50;98.50;;;;;;4998173;28;20530;-93
2021/09/26 08:32:50;;;;;;;16.80;14.45;;;17.60;98.90;;;;;;4997715;28;20037;-92
2021/09/26 08:35:16;;;;;;;17.33;13.88;;;17.70;99.00;;;;;;4995257;28;20033;-92
2021/09/26 08:37:42;;;;;;;15.73;13.45;;;17.80;99.10;;;;;;4981813;28;20121;-92
2021/09/26 08:40:09;;;;;;;14.80;11.70;;;17.80;99.00;;;;;;4980450;28;20113;-93
2021/09/26 08:42:37;;;;;;;12.98;11.40;;;17.90;98.90;;;;;;5004481;28;20017;-92
2021/09/26 08:45:05;;;;;;;15.05;12.27;;;18.00;98.90;;;;;;5016052;28;20011;-93
2021/09/26 08:47:36;;;;;;;17.38;14.13;;;18.10;98.90;;;;;;5000165;28;20101;-92
2021/09/26 08:50:03;;;;;;;;;;;18.10;99.00;;;;;;5008741;28;20030;-93
2021/09/26 08:52:29;;;;;;;18.17;13.70;;;18.20;99.00;;;;;;5013259;28;19923;-92
2021/09/26 08:54:54;;;;;;;15.88;12.57;;;18.20;99.00;;;;;;4996909;28;20485;-92
2021/09/26 08:57:22;;;;;;;17.92;13.52;;;18.30;98.90;;;;;;4980765;28;20117;-92
2021/09/26 08:59:48;;;;;;;16.35;14.43;;;18.30;98.90;;;;;;4996333;28;20048;-93
2021/09/26 09:02:17;;;;;;;15.98;14.15;;;18.40;99.00;;;;;;5000662;28;20026;-93
2021/09/26 09:04:45;;;;;;;17.30;14.75;;;18.40;99.00;;;;;;4966450;28;20034;-92
2021/09/26 09:07:31;;;;;;;17.92;15.25;;;18.50;99.00;;;;;;5000533;28;20391;-89
2021/09/26 09:10:06;;;;;;;18.15;14.52;;;18.60;99.10;;;;;;5000265;28;20384;-89
2021/09/26 09:12:37;;;;;;;15.63;13.82;;;18.70;99.20;;;;;;5016148;28;20025;-86
2021/09/26 09:15:13;;;;;;;15.38;13.80;;;18.70;99.10;;;;;;5006797;28;20037;-89
2021/09/26 09:17:41;;;;;;;16.98;14.48;;;18.80;99.10;;;;;;5007425;28;20076;-90
2021/09/26 09:20:28;;;;;;;17.83;14.27;;;18.90;99.10;;;;;;5000253;28;20018;-91
2021/09/26 09:22:56;;;;;;;18.05;15.30;;;19.00;99.10;;;;;;5017049;28;20096;-91
2021/09/26 09:25:52;;;;;;;18.20;16.05;;;19.10;99.10;;;;;;5029453;28;20029;-91
2021/09/26 09:28:22;;;;;;;18.10;15.90;;;19.10;99.00;;;;;;4999636;28;20099;-92
2021/09/26 09:30:53;;;;;;;18.13;14.63;;;19.30;98.90;;;;;;4999361;28;20025;-90
2021/09/26 09:33:21;;;;;;;19.80;15.27;;;19.30;98.80;;;;;;5015653;28;20028;-91
2021/09/26 09:35:51;;;;;;;18.30;15.07;;;19.40;98.70;;;;;;5014587;28;20037;-84
2021/09/26 09:41:44;;;;;;;18.75;16.42;;;19.50;98.40;;;;;;4967001;28;20041;-84
2021/09/26 09:44:35;;;;;;;17.58;15.60;;;19.60;98.30;;;;;;5011869;28;20368;-85
2021/09/26 09:47:01;;;;;;;;;;;19.70;98.30;;;;;;5001547;28;20035;-84
2021/09/26 09:49:42;;;;;;;17.60;15.57;;;19.80;98.30;;;;;;5003595;28;20372;-86
2021/09/26 09:52:08;;;;;;;17.50;15.60;;;19.80;98.20;;;;;;5018831;28;20050;-86
2021/09/26 09:54:54;;;;;;;18.65;16.67;;;19.90;98.20;;;;;;4981038;28;20081;-86
2021/09/26 09:57:43;;;;;;;17.20;15.43;;;20.00;98.10;;;;;;4999059;28;20030;-90
2021/09/26 10:00:28;;;;;;;17.52;14.82;;;20.10;97.90;;;;;;5024957;28;20056;-89
2021/09/26 10:02:56;;;;;;;16.63;14.35;;;20.10;97.80;;;;;;4998350;28;20030;-89
2021/09/26 10:05:33;;;;;;;15.68;13.75;;;20.30;97.80;;;;;;4967013;28;20395;-89
2021/09/26 10:08:00;;;;;;;14.93;13.32;;;20.30;97.60;;;;;;5013938;28;20018;-89
2021/09/26 10:10:33;;;;;;;17.10;14.85;;;20.40;97.60;;;;;;4997665;28;20029;-90
2021/09/26 10:13:13;;;;;;;14.70;13.10;;;20.50;97.60;;;;;;5011298;28;20018;-91
2021/09/26 10:15:39;;;;;;;15.02;13.43;;;20.50;97.50;;;;;;4982071;28;20034;-90
2021/09/26 10:18:05;;;;;;;14.80;12.45;;;20.60;97.40;;;;;;5014322;28;20026;-90
2021/09/26 10:20:32;;;;;;;15.05;12.57;;;20.60;97.30;;;;;;5016896;28;20151;-90
2021/09/26 10:23:05;;;;;;;18.70;14.02;;;20.80;97.60;;;;;;5019582;28;20060;-90
2021/09/26 10:25:36;;;;;;;16.23;13.82;;;20.80;97.00;;;;;;5025802;28;20030;-90
2021/09/26 10:31:53;;;;;;;15.63;12.40;;;21.00;96.40;;;;;;4994054;28;20045;-89
2021/09/26 10:34:20;;;;;;;15.10;13.60;;;21.10;96.50;;;;;;5016144;28;20060;-87
2021/09/26 10:40:10;;;;;;;15.25;13.02;;;21.20;95.70;;;;;;5030483;28;20083;-89
2021/09/26 10:42:37;;;;;;;18.15;12.57;;;21.30;95.80;;;;;;5002416;28;20467;-89
2021/09/26 10:45:06;;;;;;;15.60;12.95;;;21.40;95.80;;;;;;4997348;28;20034;-90
2021/09/26 10:47:36;;;;;;;13.90;12.50;;;21.40;95.50;;;;;;5004559;28;20075;-90
2021/09/26 10:50:13;;;;;;;14.48;12.82;;;21.50;95.60;;;;;;5019328;28;20057;-90
2021/09/26 10:52:47;;;;;;;14.32;12.85;;;21.60;95.80;;;;;;5000900;28;20105;-90
2021/09/26 10:55:18;;;;;;;12.45;11.15;;;21.80;95.60;;;;;;4996639;28;20073;-90
2021/09/26 10:57:48;;;;;;;13.95;12.45;;;21.90;95.40;;;;;;4996989;28;20479;-90
2021/09/26 11:00:16;;;;;;;13.37;11.63;;;22.00;95.40;;;;;;5013068;28;20027;-90
2021/09/26 11:02:44;;;;;;;13.88;12.55;;;22.10;94.90;;;;;;5013118;28;20018;-90
2021/09/26 11:05:36;;;;;;;13.82;12.45;;;22.20;94.10;;;;;;5014525;28;20018;-89
2021/09/26 11:08:04;;;;;;;14.98;13.07;;;22.30;94.10;;;;;;5009385;28;20042;-89
2021/09/26 11:10:39;;;;;;;14.68;13.18;;;22.40;94.00;;;;;;5022084;28;20476;-89
2021/09/26 11:13:15;;;;;;;15.45;13.10;;;22.50;93.60;;;;;;5010074;28;20022;-89
2021/09/26 11:16:22;;;;;;;13.35;12.00;;;22.50;93.50;;;;;;4996726;28;20018;-90
2021/09/26 11:18:47;;;;;;;14.48;12.05;;;22.60;93.60;;;;;;4997623;28;20076;-90
2021/09/26 11:21:38;;;;;;;13.10;11.57;;;22.70;93.30;;;;;;4997704;28;20026;-91
2021/09/26 11:24:08;;;;;;;12.65;10.95;;;22.80;93.30;;;;;;4997116;28;20108;-89
2021/09/26 11:27:13;;;;;;;12.52;11.32;;;22.90;93.30;;;;;;5015165;28;20038;-90
2021/09/26 11:29:38;;;;;;;11.73;10.48;;;22.90;92.80;;;;;;5012795;28;20034;-90
2021/09/26 11:32:07;;;;;;;11.88;10.70;;;23.00;92.90;;;;;;5013910;28;20021;-90
2021/09/26 11:34:52;;;;;;;13.15;10.77;;;23.10;92.60;;;;;;4996226;28;20038;-89
2021/09/26 11:37:38;;;;;;;13.30;11.20;;;23.20;92.30;;;;;;5000230;28;20084;-90
2021/09/26 11:40:20;;;;;;;12.77;11.00;;;23.20;92.00;;;;;;4998651;28;20030;-89
2021/09/26 11:42:55;;;;;;;12.40;11.10;;;23.30;91.70;;;;;;4996142;28;20079;-89
2021/09/26 11:45:31;;;;;;;11.30;10.13;;;23.40;91.30;;;;;;5006737;28;20360;-89
2021/09/26 11:48:05;;;;;;;12.23;10.25;;;23.50;91.40;;;;;;5015916;28;20474;-89
2021/09/26 11:50:32;;;;;;;13.20;10.43;;;23.60;91.20;;;;;;5006491;28;20038;-90
2021/09/26 11:52:58;;;;;;;12.23;10.38;;;23.60;91.10;;;;;;5065180;22;20552;-90
2021/09/26 11:55:28;;;;;;;12.68;10.77;;;23.70;90.80;;;;;;5037835;28;20021;-90
2021/09/26 11:57:59;;;;;;;13.38;10.10;;;23.70;90.20;;;;;;5053711;28;20037;-90
2021/09/26 12:00:28;;;;;;;12.57;10.52;;;23.80;90.40;;;;;;5057881;28;20029;-91
2021/09/26 12:02:54;;;;;;;11.60;9.77;;;23.80;90.40;;;;;;5041254;28;20143;-90
2021/09/26 12:05:37;;;;;;;10.98;9.77;;;23.80;90.30;;;;;;5026830;28;20029;-91
2021/09/26 12:08:03;;;;;;;11.65;10.50;;;23.90;90.30;;;;;;5021560;28;20037;-91
2021/09/26 12:10:30;;;;;;;12.32;10.07;;;23.90;89.90;;;;;;5059513;28;20036;-90
2021/09/26 12:12:55;;;;;;;9.63;8.70;;;23.90;89.20;;;;;;5042067;28;20025;-90
2021/09/26 12:15:24;;;;;;;10.07;8.65;;;23.90;89.70;;;;;;5021472;28;20025;-90
2021/09/26 12:17:55;;;;;;;10.73;9.65;;;24.00;89.90;;;;;;5046809;28;20037;-85
2021/09/26 12:20:21;;;;;;;;;;;24.10;89.90;;;;;;5018075;28;20060;-85
2021/09/26 12:22:47;;;;;;;11.25;10.15;;;24.20;88.80;;;;;;5031064;28;19947;-85
2021/09/26 12:25:31;;;;;;;11.00;9.73;;;24.20;87.90;;;;;;5034292;28;20048;-84
2021/09/26 12:28:02;;;;;;;12.05;8.98;;;24.20;87.80;;;;;;5050761;28;20144;-84
2021/09/26 12:30:39;;;;;;;11.90;10.60;;;24.30;88.40;;;;;;5034225;28;20024;-87
2021/09/26 12:33:17;;;;;;;11.57;9.95;;;24.30;87.30;;;;;;5034118;28;20078;-85
2021/09/26 12:36:05;;;;;;;11.48;9.63;;;24.40;87.00;;;;;;5052042;28;20017;-85
2021/09/26 12:38:53;;;;;;;10.30;9.20;;;24.40;87.60;;;;;;5050423;28;20561;-85
2021/09/26 12:41:19;;;;;;;9.40;7.88;;;24.50;86.20;;;;;;5034018;28;20021;-86
2021/09/26 12:43:50;;;;;;;11.80;9.38;;;24.50;86.30;;;;;;5055437;28;20381;-85
2021/09/26 12:46:18;;;;;;;10.63;9.43;;;24.60;85.70;;;;;;5037980;28;20021;-85
2021/09/26 12:48:46;;;;;;;8.80;7.85;;;24.60;85.60;;;;;;5038901;28;20107;-90
2021/09/26 12:51:27;;;;;;;9.88;7.75;;;24.60;86.50;;;;;;5040308;28;20031;-89
2021/09/26 12:53:54;;;;;;;10.25;8.27;;;24.70;87.10;;;;;;5056696;28;20092;-85
2021/09/26 12:56:24;;;;;;;11.65;8.82;;;24.80;86.60;;;;;;5038267;28;20056;-85
2021/09/26 12:58:53;;;;;;;10.32;8.82;;;24.80;85.70;;;;;;5036011;28;20470;-86
2021/09/26 13:01:21;;;;;;;8.73;7.82;;;24.80;85.20;;;;;;5051518;28;20040;-86
2021/09/26 13:03:55;;;;;;;11.95;9.65;;;24.80;85.30;;;;;;5052856;28;20051;-85